createdAt,value
2019-04-06T00:00:44.500Z,64.85
2019-04-06T00:01:44.257Z,65.04
2019-04-06T00:02:44.549Z,65.04
2019-04-06T00:03:44.569Z,65.23
2019-04-06T00:04:44.586Z,65.14
2019-04-06T00:05:44.347Z,65.33
2019-04-06T00:06:44.634Z,65.81
2019-04-06T00:07:44.391Z,65.42
2019-04-06T00:08:44.409Z,65.42
2019-04-06T00:09:44.691Z,65.71
2019-04-06T00:10:44.456Z,65.52
2019-04-06T00:11:44.739Z,65.71
2019-04-06T00:12:44.497Z,65.81
2019-04-06T00:13:44.788Z,65.9
2019-04-06T00:14:44.535Z,65.97
2019-04-06T00:15:44.558Z,66.25
2019-04-06T00:16:44.846Z,65.97
2019-04-06T00:17:44.867Z,66.16
2019-04-06T00:18:44.891Z,65.97
2019-04-06T00:19:44.644Z,65.9
2019-04-06T00:20:44.930Z,65.58
2019-04-06T00:21:44.689Z,65.87
2019-04-06T00:22:44.709Z,66.35
2019-04-06T00:23:44.730Z,66.44
2019-04-06T00:24:45.018Z,66.54
2019-04-06T00:25:47.095Z,66.73
2019-04-06T00:26:44.840Z,66.54
2019-04-06T00:27:45.081Z,66.63
2019-04-06T00:28:44.837Z,66.44
2019-04-06T00:29:44.866Z,66.54
2019-04-06T00:30:44.889Z,66.25
2019-04-06T00:31:45.163Z,66.54
2019-04-06T00:32:45.186Z,66.63
2019-04-06T00:33:44.948Z,66.73
2019-04-06T00:34:44.971Z,66.73
2019-04-06T00:35:45.248Z,66.63
2019-04-06T00:36:45.013Z,66.54
2019-04-06T00:37:45.292Z,66.54
2019-04-06T00:38:45.051Z,66.54
2019-04-06T00:39:45.079Z,67.4
2019-04-06T00:40:45.357Z,67.3
2019-04-06T00:41:45.115Z,67.21
2019-04-06T00:42:45.399Z,67.02
2019-04-06T00:43:45.421Z,67.02
2019-04-06T00:44:45.445Z,67.02
2019-04-06T00:45:45.205Z,66.89
2019-04-06T00:46:45.229Z,67.21
2019-04-06T00:47:45.244Z,66.92
2019-04-06T00:48:45.269Z,66.89
2019-04-06T00:49:45.552Z,67.3
2019-04-06T00:50:45.308Z,67.21
2019-04-06T00:51:45.332Z,66.99
2019-04-06T00:52:45.350Z,67.02
2019-04-06T00:53:45.370Z,67.08
2019-04-06T00:54:45.655Z,67.36
2019-04-06T00:55:55.016Z,67.36
2019-04-06T00:56:45.695Z,67.36
2019-04-06T00:57:45.715Z,67.49
2019-04-06T00:58:45.480Z,67.46
2019-04-06T00:59:45.501Z,67.18
2019-04-06T01:00:45.782Z,66.89
2019-04-06T01:01:45.543Z,67.18
2019-04-06T01:02:45.560Z,67.18
2019-04-06T01:03:45.581Z,66.99
2019-04-06T01:04:45.603Z,67.08
2019-04-06T01:05:45.626Z,66.99
2019-04-06T01:06:45.648Z,66.89
2019-04-06T01:07:45.978Z,67.46
2019-04-06T01:08:45.958Z,66.89
2019-04-06T01:09:45.996Z,67.46
2019-04-06T01:10:45.731Z,67.46
2019-04-06T01:11:45.800Z,67.46
2019-04-06T01:12:45.773Z,67.65
2019-04-06T01:13:45.796Z,67.46
2019-04-06T01:14:45.819Z,67.65
2019-04-06T01:15:45.837Z,67.94
2019-04-06T01:16:46.124Z,67.94
2019-04-06T01:17:46.153Z,67.65
2019-04-06T01:18:45.899Z,67.84
2019-04-06T01:19:45.920Z,67.84
2019-04-06T01:20:45.942Z,67.55
2019-04-06T01:21:46.224Z,68.04
2019-04-06T01:22:46.247Z,68.04
2019-04-06T01:23:46.003Z,67.55
2019-04-06T01:24:46.024Z,67.81
2019-04-06T01:25:46.043Z,67.65
2019-04-06T01:26:46.338Z,67.75
2019-04-06T01:27:46.352Z,67.91
2019-04-06T01:28:46.107Z,67.75
2019-04-06T01:29:46.136Z,67.84
2019-04-06T01:30:46.452Z,67.75
2019-04-06T01:31:46.170Z,68.1
2019-04-06T01:32:46.191Z,67.91
2019-04-06T01:33:46.212Z,68
2019-04-06T01:34:46.587Z,68.57
2019-04-06T01:35:46.254Z,68.1
2019-04-06T01:36:46.276Z,68.57
2019-04-06T01:37:46.560Z,68.48
2019-04-06T01:38:46.575Z,68.57
2019-04-06T01:39:46.338Z,68.57
2019-04-06T01:40:46.621Z,68
2019-04-06T01:41:46.647Z,68.48
2019-04-06T01:42:46.404Z,68.29
2019-04-06T01:43:46.754Z,68.57
2019-04-06T01:44:46.642Z,68.1
2019-04-06T01:45:46.459Z,68.29
2019-04-06T01:46:46.745Z,68.29
2019-04-06T01:47:46.595Z,68.67
2019-04-06T01:48:46.530Z,68.86
2019-04-06T01:49:46.806Z,68.67
2019-04-06T01:50:46.563Z,68.38
2019-04-06T01:51:46.852Z,68.86
2019-04-06T01:52:46.607Z,68.57
2019-04-06T01:53:46.888Z,68.76
2019-04-06T01:54:46.728Z,68.86
2019-04-06T01:55:46.675Z,68.67
2019-04-06T01:56:46.697Z,68.96
2019-04-06T01:57:46.711Z,69.24
2019-04-06T01:58:46.996Z,69.15
2019-04-06T01:59:46.753Z,68.96
2019-04-06T02:00:46.771Z,69.05
2019-04-06T02:01:47.131Z,68.86
2019-04-06T02:02:46.820Z,69.05
2019-04-06T02:03:47.096Z,68.67
2019-04-06T02:04:46.855Z,68.86
2019-04-06T02:05:46.878Z,68.96
2019-04-06T02:06:46.893Z,69.24
2019-04-06T02:07:47.317Z,69.15
2019-04-06T02:08:46.947Z,68.29
2019-04-06T02:09:46.965Z,69.24
2019-04-06T02:10:47.001Z,68.38
2019-04-06T02:11:47.262Z,68.86
2019-04-06T02:12:47.283Z,68.76
2019-04-06T02:13:47.087Z,68.86
2019-04-06T02:14:47.392Z,69.34
2019-04-06T02:15:47.083Z,69.34
2019-04-06T02:16:47.370Z,69.72
2019-04-06T02:17:47.124Z,69.34
2019-04-06T02:18:47.145Z,69.24
2019-04-06T02:19:47.588Z,69.02
2019-04-06T02:20:47.185Z,69.05
2019-04-06T02:21:47.470Z,69.24
2019-04-06T02:22:47.230Z,69.43
2019-04-06T02:23:47.252Z,69.05
2019-04-06T02:24:47.267Z,69.43
2019-04-06T02:25:47.289Z,69.21
2019-04-06T02:26:47.573Z,69.4
2019-04-06T02:27:47.599Z,69.78
2019-04-06T02:28:47.360Z,69.49
2019-04-06T02:29:47.675Z,69.49
2019-04-06T02:30:47.470Z,69.68
2019-04-06T02:31:47.886Z,69.87
2019-04-06T02:32:47.697Z,69.59
2019-04-06T02:33:47.461Z,69.49
2019-04-06T02:34:47.744Z,69.49
2019-04-06T02:35:47.747Z,69.49
2019-04-06T02:36:47.782Z,70.07
2019-04-06T02:37:47.647Z,69.97
2019-04-06T02:38:47.819Z,69.59
2019-04-06T02:39:47.897Z,69.68
2019-04-06T02:40:47.772Z,70.16
2019-04-06T02:41:47.881Z,69.68
2019-04-06T02:42:47.909Z,69.97
2019-04-06T02:43:47.928Z,69.97
2019-04-06T02:44:48.151Z,69.97
2019-04-06T02:45:47.972Z,70.36
2019-04-06T02:46:47.993Z,70.07
2019-04-06T02:47:48.003Z,70.07
2019-04-06T02:48:47.765Z,69.68
2019-04-06T02:49:47.926Z,69.87
2019-04-06T02:50:48.074Z,69.68
2019-04-06T02:51:47.833Z,69.78
2019-04-06T02:52:48.046Z,69.78
2019-04-06T02:53:47.871Z,69.78
2019-04-06T02:54:47.886Z,70.26
2019-04-06T02:55:48.326Z,70.16
2019-04-06T02:56:50.072Z,70.26
2019-04-06T02:57:47.947Z,70.16
2019-04-06T02:58:48.296Z,70.54
2019-04-06T02:59:48.258Z,70.45
2019-04-06T03:00:48.367Z,70.64
2019-04-06T03:01:48.038Z,70.54
2019-04-06T03:02:48.158Z,70.16
2019-04-06T03:03:48.072Z,70.45
2019-04-06T03:04:48.087Z,70.36
2019-04-06T03:05:48.378Z,70.36
2019-04-06T03:06:48.392Z,70.16
2019-04-06T03:07:48.664Z,70.45
2019-04-06T03:08:48.233Z,70.16
2019-04-06T03:09:48.192Z,70.36
2019-04-06T03:10:48.223Z,70.36
2019-04-06T03:11:48.229Z,70.54
2019-04-06T03:12:48.521Z,70.54
2019-04-06T03:13:48.294Z,70.36
2019-04-06T03:14:48.572Z,70.45
2019-04-06T03:15:48.620Z,70.64
2019-04-06T03:16:48.400Z,70.64
2019-04-06T03:17:48.352Z,70.73
2019-04-06T03:18:48.393Z,71.02
2019-04-06T03:19:48.392Z,70.92
2019-04-06T03:20:48.687Z,70.45
2019-04-06T03:21:48.848Z,70.36
2019-04-06T03:22:48.759Z,70.73
2019-04-06T03:23:54.340Z,70.54
2019-04-06T03:24:48.755Z,70.54
2019-04-06T03:25:48.803Z,70.54
2019-04-06T03:27:03.413Z,70.73
2019-04-06T03:27:48.575Z,70.64
2019-04-06T03:28:48.599Z,70.73
2019-04-06T03:30:00.524Z,70.73
2019-04-06T03:30:49.052Z,70.73
2019-04-06T03:31:48.655Z,70.61
2019-04-06T03:32:49.080Z,70.64
2019-04-06T03:33:48.985Z,70.51
2019-04-06T03:34:48.840Z,70.61
2019-04-06T03:35:52.623Z,70.79
2019-04-06T03:36:49.009Z,70.79
2019-04-06T03:37:49.022Z,70.7
2019-04-06T03:38:48.777Z,70.51
2019-04-06T03:39:49.059Z,70.73
2019-04-06T03:40:49.241Z,70.51
2019-04-06T03:41:49.096Z,70.73
2019-04-06T03:42:49.121Z,70.51
2019-04-06T03:43:49.138Z,71.18
2019-04-06T03:44:49.429Z,70.98
2019-04-06T03:45:49.346Z,71.18
2019-04-06T03:46:49.208Z,70.98
2019-04-06T03:47:49.335Z,71.08
2019-04-06T03:48:49.241Z,71.08
2019-04-06T03:49:48.999Z,71.46
2019-04-06T03:50:49.282Z,71.37
2019-04-06T03:51:49.300Z,70.98
2019-04-06T03:52:49.360Z,71.56
2019-04-06T03:53:49.083Z,71.27
2019-04-06T03:54:49.363Z,71.08
2019-04-06T03:55:49.190Z,71.18
2019-04-06T03:56:49.545Z,71.56
2019-04-06T03:57:49.167Z,71.37
2019-04-06T03:58:51.934Z,71.46
2019-04-06T03:59:49.212Z,70.89
2019-04-06T04:00:49.235Z,71.56
2019-04-06T04:01:49.504Z,71.66
2019-04-06T04:02:49.663Z,71.75
2019-04-06T04:03:49.543Z,71.75
2019-04-06T04:04:49.696Z,71.66
2019-04-06T04:05:49.666Z,71.56
2019-04-06T04:06:49.603Z,71.66
2019-04-06T04:07:49.759Z,71.46
2019-04-06T04:08:49.866Z,71.46
2019-04-06T04:09:49.454Z,71.46
2019-04-06T04:10:50.470Z,71.75
2019-04-06T04:11:49.513Z,71.46
2019-04-06T04:12:49.724Z,71.46
2019-04-06T04:13:49.878Z,71.75
2019-04-06T04:14:49.510Z,71.84
2019-04-06T04:15:50.062Z,71.94
2019-04-06T04:16:49.817Z,71.84
2019-04-06T04:17:49.570Z,71.84
2019-04-06T04:18:49.983Z,71.75
2019-04-06T04:19:50.020Z,71.75
2019-04-06T04:20:49.887Z,71.94
2019-04-06T04:21:49.914Z,71.56
2019-04-06T04:22:49.817Z,71.75
2019-04-06T04:23:49.699Z,71.94
2019-04-06T04:24:49.703Z,71.75
2019-04-06T04:25:50.029Z,71.94
2019-04-06T04:26:49.747Z,71.84
2019-04-06T04:27:50.027Z,71.94
2019-04-06T04:28:49.786Z,71.75
2019-04-06T04:29:49.814Z,72.13
2019-04-06T04:30:50.088Z,72.23
2019-04-06T04:31:50.199Z,71.75
2019-04-06T04:32:50.099Z,71.66
2019-04-06T04:33:49.881Z,71.66
2019-04-06T04:34:50.184Z,71.75
2019-04-06T04:35:50.320Z,71.75
2019-04-06T04:36:50.206Z,71.56
2019-04-06T04:37:49.956Z,71.56
2019-04-06T04:38:49.984Z,71.75
2019-04-06T04:39:50.468Z,72.13
2019-04-06T04:40:50.287Z,72.32
2019-04-06T04:41:50.815Z,72.13
2019-04-06T04:42:50.327Z,72.23
2019-04-06T04:43:50.343Z,72.23
2019-04-06T04:44:50.366Z,72.03
2019-04-06T04:45:50.132Z,71.94
2019-04-06T04:46:50.405Z,72.13
2019-04-06T04:47:52.462Z,72.03
2019-04-06T04:48:50.507Z,71.94
2019-04-06T04:49:50.311Z,72.13
2019-04-06T04:50:50.271Z,72.13
2019-04-06T04:51:50.503Z,72.42
2019-04-06T04:52:50.521Z,72.03
2019-04-06T04:53:50.540Z,72.71
2019-04-06T04:54:50.303Z,72.23
2019-04-06T04:55:50.317Z,72.23
2019-04-06T04:56:50.783Z,72.32
2019-04-06T04:57:50.384Z,72.42
2019-04-06T04:58:50.391Z,72.51
2019-04-06T04:59:50.724Z,72.32
2019-04-06T05:00:51.000Z,72.32
2019-04-06T05:01:50.707Z,72.32
2019-04-06T05:02:50.458Z,72.71
2019-04-06T05:03:50.739Z,72.23
2019-04-06T05:04:50.851Z,72.42
2019-04-06T05:05:50.530Z,72.23
2019-04-06T05:06:50.574Z,72.03
2019-04-06T05:07:50.821Z,72.42
2019-04-06T05:08:50.605Z,72.23
2019-04-06T05:09:50.609Z,72.23
2019-04-06T05:10:50.925Z,72.32
2019-04-06T05:11:51.622Z,72.32
2019-04-06T05:12:50.659Z,72.32
2019-04-06T05:13:50.678Z,72.03
2019-04-06T05:14:51.086Z,72.23
2019-04-06T05:15:50.720Z,72.03
2019-04-06T05:16:51.117Z,72.32
2019-04-06T05:17:51.022Z,72.13
2019-04-06T05:18:51.040Z,72.32
2019-04-06T05:19:50.796Z,72.32
2019-04-06T05:20:50.827Z,72.42
2019-04-06T05:21:50.834Z,72.23
2019-04-06T05:22:51.117Z,72.23
2019-04-06T05:23:50.928Z,72.32
2019-04-06T05:24:51.165Z,72.23
2019-04-06T05:25:50.921Z,72.32
2019-04-06T05:26:50.936Z,72.23
2019-04-06T05:27:55.340Z,72.23
2019-04-06T05:28:51.343Z,72.32
2019-04-06T05:29:51.018Z,72.23
2019-04-06T05:30:51.485Z,72.32
2019-04-06T05:31:51.037Z,72.32
2019-04-06T05:32:51.503Z,72.51
2019-04-06T05:33:51.088Z,72.32
2019-04-06T05:34:51.285Z,72.51
2019-04-06T05:35:51.381Z,72.23
2019-04-06T05:36:51.435Z,72.23
2019-04-06T05:37:51.479Z,72.32
2019-04-06T05:38:51.178Z,72.42
2019-04-06T05:39:51.469Z,72.42
2019-04-06T05:40:51.478Z,72.23
2019-04-06T05:41:53.131Z,72.42
2019-04-06T05:42:51.256Z,72.51
2019-04-06T05:43:51.539Z,72.61
2019-04-06T05:44:51.463Z,72.32
2019-04-06T05:45:51.535Z,72.32
2019-04-06T05:46:51.596Z,72.71
2019-04-06T05:47:51.355Z,72.61
2019-04-06T05:48:51.384Z,72.51
2019-04-06T05:49:51.394Z,72.71
2019-04-06T05:50:51.597Z,72.42
2019-04-06T05:51:51.934Z,72.71
2019-04-06T05:52:51.454Z,72.32
2019-04-06T05:53:51.476Z,72.23
2019-04-06T05:54:51.758Z,72.71
2019-04-06T05:55:51.566Z,72.23
2019-04-06T05:56:51.632Z,72.42
2019-04-06T05:58:02.182Z,72.51
2019-04-06T05:58:51.581Z,72.23
2019-04-06T05:59:51.859Z,72.23
2019-04-06T06:00:51.880Z,72.42
2019-04-06T06:01:51.902Z,72.42
2019-04-06T06:02:52.095Z,72.42
2019-04-06T06:03:51.680Z,72.42
2019-04-06T06:04:51.967Z,72.61
2019-04-06T06:05:51.744Z,72.51
2019-04-06T06:06:51.995Z,72.23
2019-04-06T06:07:51.755Z,72.71
2019-04-06T06:08:51.931Z,72.71
2019-04-06T06:09:51.803Z,72.51
2019-04-06T06:10:51.937Z,72.71
2019-04-06T06:11:51.845Z,72.23
2019-04-06T06:12:51.987Z,72.23
2019-04-06T06:13:52.135Z,72.71
2019-04-06T06:14:52.153Z,72.42
2019-04-06T06:15:51.913Z,72.23
2019-04-06T06:16:52.607Z,72.32
2019-04-06T06:17:51.953Z,72.23
2019-04-06T06:18:52.447Z,72.61
2019-04-06T06:19:52.099Z,72.61
2019-04-06T06:20:52.413Z,72.51
2019-04-06T06:21:52.294Z,72.51
2019-04-06T06:22:52.236Z,72.51
2019-04-06T06:23:52.438Z,72.51
2019-04-06T06:24:52.093Z,72.23
2019-04-06T06:25:52.130Z,72.42
2019-04-06T06:26:52.638Z,72.32
2019-04-06T06:27:52.414Z,72.51
2019-04-06T06:28:52.177Z,72.42
2019-04-06T06:29:52.458Z,72.32
2019-04-06T06:30:52.208Z,72.32
2019-04-06T06:31:52.234Z,72.32
2019-04-06T06:32:52.450Z,72.42
2019-04-06T06:33:52.532Z,72.42
2019-04-06T06:34:52.290Z,72.42
2019-04-06T06:35:52.308Z,72.03
2019-04-06T06:36:52.612Z,72.71
2019-04-06T06:37:52.524Z,72.32
2019-04-06T06:38:52.421Z,72.51
2019-04-06T06:39:52.678Z,72.42
2019-04-06T06:40:52.415Z,72.61
2019-04-06T06:41:52.433Z,72.42
2019-04-06T06:42:52.814Z,72.32
2019-04-06T06:43:52.733Z,72.03
2019-04-06T06:44:52.491Z,72.13
2019-04-06T06:45:52.508Z,72.03
2019-04-06T06:46:52.789Z,72.03
2019-04-06T06:47:52.555Z,72.03
2019-04-06T06:48:52.841Z,72.13
2019-04-06T06:49:52.850Z,72.23
2019-04-06T06:50:52.880Z,72.13
2019-04-06T06:51:52.714Z,72.03
2019-04-06T06:52:52.662Z,72.13
2019-04-06T06:53:52.979Z,71.94
2019-04-06T06:54:52.843Z,72.13
2019-04-06T06:55:55.760Z,72.03
2019-04-06T06:56:53.150Z,72.03
2019-04-06T06:57:52.752Z,72.13
2019-04-06T06:58:52.766Z,71.94
2019-04-06T06:59:52.790Z,71.94
2019-04-06T07:00:53.070Z,72.23
2019-04-06T07:01:52.831Z,72.03
2019-04-06T07:02:52.846Z,72.23
2019-04-06T07:03:53.399Z,71.46
2019-04-06T07:04:52.888Z,71.56
2019-04-06T07:05:53.083Z,72.03
2019-04-06T07:06:52.928Z,71.75
2019-04-06T07:07:53.208Z,71.75
2019-04-06T07:08:52.979Z,71.66
2019-04-06T07:09:52.986Z,71.56
2019-04-06T07:10:53.011Z,71.75
2019-04-06T07:11:53.029Z,71.56
2019-04-06T07:12:53.048Z,71.66
2019-04-06T07:13:53.335Z,71.56
2019-04-06T07:14:53.247Z,71.56
2019-04-06T07:15:53.122Z,71.84
2019-04-06T07:16:53.135Z,71.66
2019-04-06T07:17:53.587Z,71.94
2019-04-06T07:18:53.435Z,71.75
2019-04-06T07:19:53.453Z,71.84
2019-04-06T07:20:53.504Z,71.94
2019-04-06T07:21:53.592Z,71.94
2019-04-06T07:22:53.249Z,71.84
2019-04-06T07:23:53.271Z,71.84
2019-04-06T07:24:53.290Z,72.03
2019-04-06T07:26:00.763Z,71.75
2019-04-06T07:26:53.334Z,71.94
2019-04-06T07:27:53.614Z,71.84
2019-04-06T07:28:53.427Z,71.75
2019-04-06T07:29:53.419Z,71.94
2019-04-06T07:30:53.457Z,71.78
2019-04-06T07:31:53.430Z,71.88
2019-04-06T07:32:55.371Z,71.69
2019-04-06T07:33:53.470Z,71.69
2019-04-06T07:34:53.708Z,71.78
2019-04-06T07:35:53.632Z,71.98
2019-04-06T07:36:53.793Z,71.88
2019-04-06T07:37:53.553Z,71.59
2019-04-06T07:38:53.727Z,71.59
2019-04-06T07:39:53.606Z,71.59
2019-04-06T07:40:53.906Z,71.41
2019-04-06T07:41:54.035Z,71.41
2019-04-06T07:42:54.076Z,71.69
2019-04-06T07:43:53.934Z,71.88
2019-04-06T07:44:53.952Z,71.21
2019-04-06T07:45:53.997Z,71.12
2019-04-06T07:46:53.873Z,71.21
2019-04-06T07:47:53.750Z,71.59
2019-04-06T07:48:53.773Z,71.41
2019-04-06T07:49:54.057Z,71.31
2019-04-06T07:50:53.883Z,71.12
2019-04-06T07:51:54.096Z,70.73
2019-04-06T07:52:54.272Z,70.64
2019-04-06T07:53:53.985Z,70.64
2019-04-06T07:54:53.895Z,70.54
2019-04-06T07:55:53.963Z,70.96
2019-04-06T07:56:54.216Z,70.58
2019-04-06T07:57:54.020Z,70.83
2019-04-06T07:58:54.253Z,70.73
2019-04-06T07:59:53.998Z,70.92
2019-04-06T08:00:54.286Z,70.58
2019-04-06T08:01:54.226Z,70.48
2019-04-06T08:02:54.342Z,70.48
2019-04-06T08:03:54.082Z,70.67
2019-04-06T08:04:54.366Z,71.06
2019-04-06T08:05:54.625Z,70.58
2019-04-06T08:06:54.411Z,70.67
2019-04-06T08:07:54.428Z,70.67
2019-04-06T08:08:54.665Z,70.2
2019-04-06T08:09:54.376Z,70.1
2019-04-06T08:10:54.691Z,70.2
2019-04-06T08:11:54.481Z,70.58
2019-04-06T08:12:54.529Z,70.2
2019-04-06T08:13:54.545Z,70.48
2019-04-06T08:14:54.305Z,70.29
2019-04-06T08:15:54.620Z,70.48
2019-04-06T08:16:54.422Z,70.58
2019-04-06T08:17:54.368Z,69.72
2019-04-06T08:18:54.853Z,69.72
2019-04-06T08:19:54.670Z,70.2
2019-04-06T08:20:54.439Z,70.01
2019-04-06T08:21:54.697Z,70.2
2019-04-06T08:22:54.470Z,69.72
2019-04-06T08:23:54.754Z,69.53
2019-04-06T08:24:54.743Z,69.72
2019-04-06T08:25:54.544Z,69.62
2019-04-06T08:26:54.553Z,69.37
2019-04-06T08:27:54.577Z,69.53
2019-04-06T08:29:03.682Z,69.43
2019-04-06T08:29:54.651Z,69.43
2019-04-06T08:30:54.636Z,69.47
2019-04-06T08:31:54.656Z,69.05
2019-04-06T08:32:54.682Z,69.37
2019-04-06T08:33:55.216Z,69.27
2019-04-06T08:34:54.986Z,68.9
2019-04-06T08:35:54.904Z,68.7
2019-04-06T08:36:54.786Z,68.51
2019-04-06T08:37:55.046Z,69.09
2019-04-06T08:38:54.814Z,68.7
2019-04-06T08:39:54.882Z,68.41
2019-04-06T08:40:55.120Z,68.7
2019-04-06T08:41:55.140Z,68.8
2019-04-06T08:42:54.889Z,68.99
2019-04-06T08:43:54.910Z,68.41
2019-04-06T08:44:54.931Z,68.8
2019-04-06T08:45:55.223Z,68.7
2019-04-06T08:46:55.235Z,68.7
2019-04-06T08:47:55.157Z,68.7
2019-04-06T08:48:55.018Z,68.61
2019-04-06T08:49:55.297Z,68.8
2019-04-06T08:50:55.319Z,68.74
2019-04-06T08:51:55.338Z,68.74
2019-04-06T08:52:55.426Z,68.35
2019-04-06T08:53:55.360Z,68.41
2019-04-06T08:54:55.404Z,68.26
2019-04-06T08:55:55.350Z,68.32
2019-04-06T08:56:55.241Z,68.45
2019-04-06T08:57:55.201Z,68.51
2019-04-06T08:58:55.225Z,68.74
2019-04-06T08:59:55.250Z,68.04
2019-04-06T09:00:55.724Z,68.64
2019-04-06T09:01:55.550Z,68.64
2019-04-06T09:02:55.309Z,68.64
2019-04-06T09:03:55.336Z,68.16
2019-04-06T09:04:55.354Z,68.16
2019-04-06T09:05:55.864Z,68.45
2019-04-06T09:06:55.402Z,68.45
2019-04-06T09:07:55.898Z,68.55
2019-04-06T09:08:55.703Z,68.35
2019-04-06T09:09:55.720Z,68.64
2019-04-06T09:10:55.739Z,68.55
2019-04-06T09:11:55.787Z,68.07
2019-04-06T09:12:55.854Z,68.74
2019-04-06T09:13:55.592Z,68.45
2019-04-06T09:14:56.021Z,68.55
2019-04-06T09:15:56.041Z,68.26
2019-04-06T09:16:55.871Z,68.64
2019-04-06T09:17:55.895Z,68.16
2019-04-06T09:18:56.012Z,68.16
2019-04-06T09:19:55.751Z,68.74
2019-04-06T09:20:55.697Z,68.93
2019-04-06T09:21:55.988Z,68.45
2019-04-06T09:22:55.745Z,68.64
2019-04-06T09:23:58.150Z,68.74
2019-04-06T09:24:56.086Z,68.93
2019-04-06T09:25:56.015Z,69.02
2019-04-06T09:26:55.895Z,69.12
2019-04-06T09:27:56.102Z,69.02
2019-04-06T09:28:56.186Z,68.84
2019-04-06T09:29:55.879Z,69.02
2019-04-06T09:30:56.631Z,69.21
2019-04-06T09:31:56.379Z,68.55
2019-04-06T09:32:56.206Z,69.21
2019-04-06T09:33:55.966Z,69.12
2019-04-06T09:34:56.538Z,69.02
2019-04-06T09:35:56.274Z,68.84
2019-04-06T09:36:56.288Z,68.64
2019-04-06T09:37:56.346Z,68.84
2019-04-06T09:38:56.347Z,68.55
2019-04-06T09:39:56.095Z,69.12
2019-04-06T09:40:56.305Z,69.7
2019-04-06T09:41:56.140Z,69.6
2019-04-06T09:42:56.158Z,69.79
2019-04-06T09:43:56.183Z,70.07
2019-04-06T09:44:56.195Z,69.41
2019-04-06T09:45:56.217Z,69.31
2019-04-06T09:46:56.505Z,68.93
2019-04-06T09:47:56.311Z,68.55
2019-04-06T09:48:56.287Z,68.64
2019-04-06T09:49:56.570Z,68.74
2019-04-06T09:50:56.323Z,69.21
2019-04-06T09:51:56.830Z,69.31
2019-04-06T09:52:56.880Z,69.21
2019-04-06T09:54:08.115Z,69.31
2019-04-06T09:54:56.409Z,69.31
2019-04-06T09:55:56.696Z,69.31
2019-04-06T09:56:56.453Z,68.45
2019-04-06T09:57:56.857Z,69.12
2019-04-06T09:58:56.758Z,68.68
2019-04-06T09:59:56.781Z,68.93
2019-04-06T10:00:56.540Z,68.93
2019-04-06T10:01:56.570Z,69.15
2019-04-06T10:02:56.657Z,69.06
2019-04-06T10:03:56.864Z,68.77
2019-04-06T10:04:56.636Z,68.68
2019-04-06T10:05:56.908Z,68.87
2019-04-06T10:06:56.668Z,68.77
2019-04-06T10:07:56.745Z,68.68
2019-04-06T10:08:56.971Z,68.77
2019-04-06T10:09:57.234Z,68.39
2019-04-06T10:10:57.043Z,68.68
2019-04-06T10:11:57.208Z,68.2
2019-04-06T10:12:57.055Z,67.82
2019-04-06T10:13:56.816Z,67.91
2019-04-06T10:14:57.233Z,68.01
2019-04-06T10:15:57.217Z,67.91
2019-04-06T10:16:57.157Z,68.01
2019-04-06T10:17:57.061Z,68.68
2019-04-06T10:18:56.923Z,68.49
2019-04-06T10:19:57.846Z,68.2
2019-04-06T10:20:56.968Z,68.58
2019-04-06T10:21:56.989Z,68.2
2019-04-06T10:22:57.339Z,68.39
2019-04-06T10:23:57.607Z,68.1
2019-04-06T10:24:57.053Z,68.68
2019-04-06T10:25:57.380Z,68.58
2019-04-06T10:26:57.366Z,68.68
2019-04-06T10:27:57.119Z,68.77
2019-04-06T10:28:57.138Z,68.29
2019-04-06T10:29:57.420Z,68.2
2019-04-06T10:30:57.443Z,68.68
2019-04-06T10:31:57.201Z,68.01
2019-04-06T10:32:57.628Z,68.01
2019-04-06T10:33:57.509Z,68.01
2019-04-06T10:34:57.526Z,68.2
2019-04-06T10:35:57.487Z,68.39
2019-04-06T10:36:57.577Z,68.39
2019-04-06T10:37:57.591Z,68.58
2019-04-06T10:38:58.000Z,68.77
2019-04-06T10:39:57.373Z,68.49
2019-04-06T10:40:57.965Z,68.49
2019-04-06T10:41:57.735Z,68.2
2019-04-06T10:42:57.445Z,68.49
2019-04-06T10:43:57.912Z,67.72
2019-04-06T10:44:57.482Z,68.1
2019-04-06T10:45:57.638Z,67.91
2019-04-06T10:46:57.789Z,68.77
2019-04-06T10:47:57.547Z,68.1
2019-04-06T10:48:57.801Z,68.01
2019-04-06T10:49:57.853Z,67.82
2019-04-06T10:50:57.614Z,68.2
2019-04-06T10:51:57.899Z,67.82
2019-04-06T10:52:57.921Z,68.01
2019-04-06T10:53:57.682Z,67.72
2019-04-06T10:54:58.110Z,68.1
2019-04-06T10:55:58.254Z,67.72
2019-04-06T10:56:57.932Z,68.68
2019-04-06T10:57:57.762Z,68.77
2019-04-06T10:58:58.119Z,68.2
2019-04-06T11:00:05.339Z,68.1
2019-04-06T11:00:57.834Z,68.29
2019-04-06T11:01:58.109Z,68.68
2019-04-06T11:02:58.065Z,68.39
2019-04-06T11:03:57.887Z,68.58
2019-04-06T11:04:57.940Z,68.68
2019-04-06T11:05:57.928Z,68.39
2019-04-06T11:06:57.954Z,68.49
2019-04-06T11:07:58.475Z,68.29
2019-04-06T11:08:58.256Z,68.39
2019-04-06T11:09:58.017Z,68.2
2019-04-06T11:10:58.299Z,68.29
2019-04-06T11:11:58.745Z,68.96
2019-04-06T11:12:58.400Z,68.2
2019-04-06T11:13:58.105Z,68.29
2019-04-06T11:14:58.389Z,68.29
2019-04-06T11:15:58.156Z,68.49
2019-04-06T11:16:58.170Z,68.39
2019-04-06T11:17:58.706Z,68.39
2019-04-06T11:18:58.210Z,68.39
2019-04-06T11:19:58.311Z,68.39
2019-04-06T11:20:58.522Z,68.68
2019-04-06T11:21:58.273Z,68.58
2019-04-06T11:22:58.426Z,68.49
2019-04-06T11:23:58.582Z,68.58
2019-04-06T11:24:58.548Z,68.2
2019-04-06T11:25:58.368Z,68.58
2019-04-06T11:26:58.649Z,68.01
2019-04-06T11:27:58.402Z,68.68
2019-04-06T11:28:58.576Z,68.39
2019-04-06T11:30:11.164Z,68.68
2019-04-06T11:30:58.738Z,68.1
2019-04-06T11:31:58.874Z,68.49
2019-04-06T11:32:58.512Z,68.68
2019-04-06T11:33:58.540Z,68.2
2019-04-06T11:34:58.933Z,68.58
2019-04-06T11:35:58.574Z,68.68
2019-04-06T11:36:59.194Z,68.58
2019-04-06T11:37:58.741Z,68.1
2019-04-06T11:38:58.902Z,68.58
2019-04-06T11:39:58.931Z,68.77
2019-04-06T11:40:58.686Z,68.68
2019-04-06T11:41:58.966Z,68.68
2019-04-06T11:42:58.730Z,68.49
2019-04-06T11:43:59.276Z,67.91
2019-04-06T11:44:59.031Z,68.68
2019-04-06T11:45:58.791Z,68.01
2019-04-06T11:46:59.075Z,68.77
2019-04-06T11:47:59.104Z,68.29
2019-04-06T11:48:59.121Z,68.58
2019-04-06T11:49:58.880Z,68.2
2019-04-06T11:50:58.899Z,68.39
2019-04-06T11:51:59.185Z,68.58
2019-04-06T11:52:58.943Z,68.68
2019-04-06T11:53:59.232Z,68.49
2019-04-06T11:54:59.127Z,68.58
2019-04-06T11:55:59.410Z,68.58
2019-04-06T11:56:59.300Z,68.58
2019-04-06T11:57:59.051Z,68.58
2019-04-06T11:58:59.530Z,68.58
2019-04-06T11:59:59.094Z,68.39
2019-04-06T12:01:01.195Z,68.29
2019-04-06T12:01:59.399Z,67.91
2019-04-06T12:02:59.425Z,68.71
2019-04-06T12:03:59.184Z,68.68
2019-04-06T12:04:59.641Z,68.77
2019-04-06T12:05:59.487Z,68.58
2019-04-06T12:07:00.913Z,68.68
2019-04-06T12:07:59.899Z,68.8
2019-04-06T12:08:59.804Z,68.68
2019-04-06T12:09:59.573Z,68.42
2019-04-06T12:10:59.745Z,68.62
2019-04-06T12:11:59.540Z,68.23
2019-04-06T12:12:59.653Z,67.94
2019-04-06T12:13:59.729Z,67.85
2019-04-06T12:14:59.680Z,68.13
2019-04-06T12:15:59.488Z,67.85
2019-04-06T12:16:59.778Z,67.85
2019-04-06T12:18:00.120Z,68.04
2019-04-06T12:18:59.506Z,67.85
2019-04-06T12:19:59.841Z,67.85
2019-04-06T12:20:59.818Z,68.13
2019-04-06T12:21:59.577Z,67.76
2019-04-06T12:23:00.203Z,68.04
2019-04-06T12:23:59.668Z,67.94
2019-04-06T12:25:00.274Z,67.85
2019-04-06T12:25:59.921Z,67.94
2019-04-06T12:26:59.680Z,67.76
2019-04-06T12:28:00.117Z,67.66
2019-04-06T12:29:00.160Z,67.56
2019-04-06T12:29:59.772Z,67.27
2019-04-06T12:31:00.033Z,67.6
2019-04-06T12:31:59.969Z,67.85
2019-04-06T12:33:00.411Z,66.99
2019-04-06T12:34:00.467Z,66.99
2019-04-06T12:34:59.856Z,67.11
2019-04-06T12:36:00.243Z,67.31
2019-04-06T12:37:00.386Z,66.83
2019-04-06T12:38:00.443Z,67.02
2019-04-06T12:38:59.943Z,67.6
2019-04-06T12:39:59.989Z,67.69
2019-04-06T12:40:59.995Z,67.21
2019-04-06T12:42:00.022Z,67.31
2019-04-06T12:43:00.315Z,66.93
2019-04-06T12:44:00.314Z,67.21
2019-04-06T12:45:00.338Z,67.41
2019-04-06T12:46:00.602Z,66.93
2019-04-06T12:47:00.118Z,67.5
2019-04-06T12:48:00.631Z,67.31
2019-04-06T12:49:00.165Z,67.21
2019-04-06T12:50:00.457Z,66.83
2019-04-06T12:51:00.533Z,66.93
2019-04-06T12:52:00.230Z,66.74
2019-04-06T12:53:00.523Z,66.83
2019-04-06T12:54:00.542Z,67.11
2019-04-06T12:55:00.560Z,66.93